Time;durP1;ratioP1;P1;durP2;ratioP2;P2;SDS_P1;SDS_P2;PMS_P1;PMS_P2;Temp;Humidity;BMP_temperature;BMP_pressure;BME280_temperature;BME280_humidity;BME280_pressure;Samples;Min_cycle;Max_cycle;Signal;HPM_P1;HPM_P2
2023/03/06 00:03:29;;;;;;;37.13;18.77;;;2.50;99.90;;;;;;20910502;28;20044;-57
2023/03/06 00:13:33;;;;;;;38.55;18.05;;;2.40;99.90;;;;;;20909088;28;20126;-57
2023/03/06 00:23:35;;;;;;;46.67;21.45;;;2.20;99.90;;;;;;20908336;28;20486;-57
2023/03/06 00:33:36;;;;;;;46.40;22.38;;;1.70;99.90;;;;;;20908017;28;20037;-57
2023/03/06 00:43:39;;;;;;;50.35;22.65;;;1.50;99.90;;;;;;20889126;28;20036;-57
2023/03/06 00:53:42;;;;;;;55.28;23.58;;;1.40;99.90;;;;;;20906455;28;20032;-64
2023/03/06 01:03:44;;;;;;;49.63;22.58;;;1.40;99.90;;;;;;20887512;28;20401;-57
2023/03/06 01:13:45;;;;;;;43.22;21.17;;;1.30;99.90;;;;;;20903167;28;20057;-56
2023/03/06 01:23:48;;;;;;;56.35;25.83;;;1.00;99.90;;;;;;20904078;28;20036;-64
2023/03/06 01:33:51;;;;;;;56.88;25.63;;;0.60;99.90;;;;;;20903996;28;20040;-57
2023/03/06 01:43:52;;;;;;;56.50;24.23;;;0.40;99.90;;;;;;20904077;28;20033;-64
2023/03/06 01:53:56;;;;;;;62.13;26.10;;;0.30;99.90;;;;;;20902585;28;20474;-64
2023/03/06 02:03:59;;;;;;;53.10;23.10;;;0.30;99.90;;;;;;20902147;28;20033;-57
2023/03/06 02:14:02;;;;;;;53.63;24.25;;;0.30;99.90;;;;;;20909288;28;20052;-57
2023/03/06 02:24:31;;;;;;;36.80;17.48;;;0.30;99.90;;;;;;20916698;28;20037;-65
2023/03/06 02:34:37;;;;;;;50.00;22.30;;;0.20;99.90;;;;;;20916247;28;20036;-59
2023/03/06 02:44:38;;;;;;;47.72;19.08;;;0.10;99.90;;;;;;20915166;28;20033;-57
2023/03/06 02:54:41;;;;;;;49.60;23.13;;;0.00;99.90;;;;;;20915449;28;20549;-57
2023/03/06 03:04:43;;;;;;;55.65;25.15;;;-0.20;99.90;;;;;;20915100;28;20029;-56
2023/03/06 03:14:45;;;;;;;56.17;26.38;;;-0.30;99.90;;;;;;20912768;28;20049;-66
2023/03/06 03:24:47;;;;;;;50.03;22.90;;;-0.30;99.90;;;;;;20911605;28;20087;-66
2023/03/06 03:34:49;;;;;;;43.50;22.20;;;0.20;99.90;;;;;;20912661;28;20091;-66
2023/03/06 03:44:52;;;;;;;37.28;19.63;;;0.30;99.90;;;;;;20910845;28;20033;-57
2023/03/06 03:54:56;;;;;;;36.13;19.15;;;0.50;99.90;;;;;;20909797;28;20036;-58
2023/03/06 04:04:57;;;;;;;38.50;19.50;;;1.10;99.90;;;;;;20909459;28;20079;-65
2023/03/06 04:15:00;;;;;;;36.13;18.48;;;1.20;99.90;;;;;;20907959;28;20106;-64
2023/03/06 04:25:02;;;;;;;28.67;15.20;;;1.40;99.90;;;;;;20907405;28;20021;-57
2023/03/06 04:35:05;;;;;;;33.00;16.70;;;1.60;99.90;;;;;;20907622;28;20083;-64
2023/03/06 04:45:11;;;;;;;42.65;17.52;;;1.60;99.90;;;;;;20905862;28;20045;-63
2023/03/06 04:55:15;;;;;;;36.90;18.10;;;1.60;99.90;;;;;;20906380;28;20331;-57
2023/03/06 05:05:17;;;;;;;27.88;12.90;;;1.50;99.90;;;;;;20904685;28;20033;-56
2023/03/06 05:15:19;;;;;;;19.98;10.93;;;1.50;99.90;;;;;;20903594;28;20045;-57
2023/03/06 05:25:20;;;;;;;25.88;11.85;;;1.80;99.90;;;;;;20902793;28;20643;-56
2023/03/06 05:35:22;;;;;;;19.23;9.82;;;1.90;99.90;;;;;;20902680;28;20047;-57
2023/03/06 05:45:24;;;;;;;20.02;9.88;;;1.90;99.90;;;;;;20903217;28;20033;-58
2023/03/06 05:55:26;;;;;;;39.58;18.63;;;1.70;99.90;;;;;;20901434;28;20037;-58
2023/03/06 06:05:27;;;;;;;33.40;15.40;;;1.50;99.90;;;;;;20902490;28;20540;-64
2023/03/06 06:15:29;;;;;;;18.55;9.50;;;1.00;99.90;;;;;;20902083;28;20041;-57
2023/03/06 06:25:31;;;;;;;35.90;15.70;;;1.50;99.90;;;;;;20901514;28;20036;-58
2023/03/06 06:35:35;;;;;;;32.33;15.70;;;1.90;99.90;;;;;;20901409;28;20087;-55
2023/03/06 06:45:38;;;;;;;22.75;11.35;;;1.70;99.90;;;;;;20899614;28;20087;-57
2023/03/06 06:55:40;;;;;;;18.58;9.50;;;2.20;99.90;;;;;;20902026;28;20098;-57
2023/03/06 07:05:41;;;;;;;19.08;10.30;;;2.40;99.90;;;;;;20915251;28;20040;-56
2023/03/06 07:15:43;;;;;;;34.13;15.52;;;2.70;99.90;;;;;;20914154;28;20049;-57
2023/03/06 07:25:45;;;;;;;29.42;14.25;;;3.10;99.90;;;;;;20913378;28;20033;-56
2023/03/06 07:35:46;;;;;;;20.80;12.05;;;3.50;99.90;;;;;;20911217;28;20059;-57
2023/03/06 07:45:58;;;;;;;23.35;12.20;;;3.60;99.90;;;;;;20910927;28;20037;-58
2023/03/06 07:56:00;;;;;;;27.27;12.85;;;3.80;99.90;;;;;;20911299;28;20029;-64
2023/03/06 08:06:09;;;;;;;18.88;10.50;;;3.90;99.90;;;;;;20909178;28;20029;-56
2023/03/06 08:16:10;;;;;;;24.45;12.40;;;4.10;99.90;;;;;;20907650;28;20823;-63
2023/03/06 08:26:18;;;;;;;22.02;12.63;;;4.20;99.90;;;;;;20908520;28;20037;-55
2023/03/06 08:36:20;;;;;;;24.67;13.15;;;4.40;99.90;;;;;;20907648;28;20126;-57
2023/03/06 08:46:24;;;;;;;28.83;15.27;;;4.70;99.90;;;;;;20907352;28;20033;-57
2023/03/06 08:56:35;;;;;;;35.33;17.08;;;5.00;99.90;;;;;;20906506;28;20037;-63
2023/03/06 09:06:40;;;;;;;26.80;14.87;;;5.20;99.90;;;;;;20905602;28;20039;-63
2023/03/06 09:16:42;;;;;;;26.60;15.48;;;6.30;99.90;;;;;;20905481;28;20406;-57
2023/03/06 09:26:43;;;;;;;25.88;15.43;;;6.80;99.90;;;;;;20904058;28;20145;-56
2023/03/06 09:36:45;;;;;;;21.40;12.43;;;7.00;99.90;;;;;;20903695;28;20067;-63
2023/03/06 09:47:21;;;;;;;20.85;10.95;;;7.30;99.90;;;;;;20903217;28;20029;-63
2023/03/06 09:57:34;;;;;;;23.23;11.07;;;7.70;99.90;;;;;;20902764;28;20036;-64
2023/03/06 10:07:42;;;;;;;29.15;14.38;;;7.60;99.90;;;;;;20900684;28;20024;-64
2023/03/06 10:17:44;;;;;;;30.95;16.30;;;7.20;99.90;;;;;;20899940;28;20098;-64
2023/03/06 10:27:46;;;;;;;27.20;15.90;;;6.60;99.90;;;;;;20901423;28;20441;-63
2023/03/06 10:37:48;;;;;;;28.02;16.63;;;6.50;99.90;;;;;;20913854;28;20036;-56
2023/03/06 10:48:07;;;;;;;32.50;17.42;;;6.70;99.90;;;;;;20915488;28;20040;-63
2023/03/06 10:58:25;;;;;;;29.38;16.65;;;7.00;99.90;;;;;;20915627;28;20051;-63
2023/03/06 11:08:28;;;;;;;34.85;18.65;;;7.30;99.90;;;;;;20913644;28;20437;-64
2023/03/06 11:18:41;;;;;;;39.22;21.25;;;6.80;99.90;;;;;;20914346;28;20044;-63
2023/03/06 11:28:47;;;;;;;43.33;24.92;;;6.20;99.90;;;;;;20895624;28;20041;-54
2023/03/06 11:38:51;;;;;;;35.70;18.48;;;6.60;99.90;;;;;;20912472;28;20478;-63
2023/03/06 11:49:11;;;;;;;46.78;26.00;;;7.20;99.90;;;;;;20910739;28;20033;-63
2023/03/06 11:59:24;;;;;;;49.73;28.97;;;7.50;99.90;;;;;;20911265;28;20036;-58
2023/03/06 12:09:36;;;;;;;51.47;29.98;;;7.10;99.90;;;;;;20908595;28;20045;-63
2023/03/06 12:19:49;;;;;;;57.95;30.17;;;7.10;99.90;;;;;;20908307;28;20102;-63
2023/03/06 12:30:14;;;;;;;59.45;33.92;;;7.90;99.90;;;;;;20908585;28;20099;-56
2023/03/06 12:40:29;;;;;;;61.95;34.30;;;6.80;99.90;;;;;;20907746;28;20033;-57
2023/03/06 12:50:35;;;;;;;54.63;31.20;;;6.30;99.90;;;;;;20907254;28;20036;-57
2023/03/06 13:00:55;;;;;;;57.63;30.92;;;5.30;99.90;;;;;;20905802;28;20472;-63
2023/03/06 13:11:21;;;;;;;61.38;32.78;;;5.10;99.90;;;;;;20903730;28;20048;-63
2023/03/06 13:21:43;;;;;;;55.28;29.35;;;5.60;99.90;;;;;;20904693;28;20063;-63
2023/03/06 13:31:44;;;;;;;48.53;27.38;;;6.00;99.90;;;;;;20904161;28;20048;-54
2023/03/06 13:41:54;;;;;;;54.53;30.38;;;6.00;99.90;;;;;;20903359;28;20541;-63
2023/03/06 13:52:21;;;;;;;48.17;26.30;;;5.80;99.90;;;;;;20903053;28;20025;-57
2023/03/06 14:02:42;;;;;;;44.63;24.23;;;5.60;99.90;;;;;;20902623;28;20037;-63
2023/03/06 14:12:49;;;;;;;46.73;24.30;;;5.70;99.90;;;;;;20916060;28;20053;-60
2023/03/06 14:22:51;;;;;;;40.40;22.35;;;5.80;99.90;;;;;;20918547;28;20029;-57
2023/03/06 14:32:54;;;;;;;41.80;22.00;;;5.60;99.90;;;;;;20916847;28;20094;-57
2023/03/06 14:43:18;;;;;;;37.13;20.60;;;5.80;99.90;;;;;;20916880;28;20028;-63
2023/03/06 14:53:25;;;;;;;36.20;20.92;;;5.50;99.90;;;;;;20916333;28;20029;-63
2023/03/06 15:03:34;;;;;;;40.55;20.88;;;5.30;99.90;;;;;;20915736;28;20028;-63
2023/03/06 15:13:36;;;;;;;36.17;19.67;;;5.10;99.90;;;;;;20914305;28;20083;-63
2023/03/06 15:23:40;;;;;;;44.67;21.38;;;4.80;99.90;;;;;;20911997;28;20436;-57
2023/03/06 15:33:44;;;;;;;42.65;22.50;;;4.50;99.90;;;;;;20912191;28;20036;-63
2023/03/06 15:43:46;;;;;;;38.70;21.38;;;4.50;99.90;;;;;;20912278;28;20040;-56
2023/03/06 15:53:47;;;;;;;39.45;20.83;;;4.50;99.90;;;;;;20911757;28;20471;-57
2023/03/06 16:03:49;;;;;;;41.67;21.27;;;4.30;99.90;;;;;;20912317;28;20033;-55
2023/03/06 16:13:51;;;;;;;42.55;21.63;;;4.10;99.90;;;;;;20910034;28;20138;-57
2023/03/06 16:23:53;;;;;;;41.35;20.45;;;4.00;99.90;;;;;;20908283;28;20062;-57
2023/03/06 16:33:55;;;;;;;44.22;21.23;;;3.90;99.90;;;;;;20889976;28;20037;-57
2023/03/06 16:43:56;;;;;;;43.85;21.65;;;3.70;99.90;;;;;;20907661;28;20041;-56
2023/03/06 16:53:58;;;;;;;37.75;19.95;;;3.60;99.90;;;;;;20907302;28;20036;-57
2023/03/06 17:04:00;;;;;;;31.17;16.95;;;3.50;99.90;;;;;;20906227;28;20086;-63
2023/03/06 17:14:01;;;;;;;33.00;17.25;;;3.20;99.90;;;;;;20905109;28;20061;-63
2023/03/06 17:24:04;;;;;;;32.72;16.70;;;2.90;99.90;;;;;;20904706;28;20433;-63
2023/03/06 17:34:05;;;;;;;35.20;18.55;;;2.80;99.90;;;;;;20904529;28;20036;-63
2023/03/06 17:44:09;;;;;;;36.38;17.75;;;2.70;99.90;;;;;;20901910;28;20028;-64
2023/03/06 17:54:11;;;;;;;35.65;16.42;;;2.70;99.90;;;;;;20901688;28;20037;-64
2023/03/06 18:04:13;;;;;;;33.17;16.88;;;2.40;99.90;;;;;;20901558;28;20033;-64
2023/03/06 18:14:14;;;;;;;38.45;19.92;;;2.10;99.90;;;;;;20902193;28;20119;-63
2023/03/06 18:24:17;;;;;;;35.78;17.80;;;2.00;99.90;;;;;;20901855;28;20346;-64
2023/03/06 18:34:18;;;;;;;29.17;15.98;;;1.90;99.90;;;;;;20901942;28;20056;-57
2023/03/06 18:44:20;;;;;;;27.77;15.40;;;1.70;99.90;;;;;;20900900;28;20040;-64
2023/03/06 18:54:24;;;;;;;30.00;17.05;;;1.50;99.90;;;;;;20906239;28;20419;-55
2023/03/06 19:04:26;;;;;;;33.50;17.23;;;1.50;99.90;;;;;;20914173;28;20469;-63
2023/03/06 19:14:28;;;;;;;26.02;14.50;;;1.50;99.90;;;;;;20914341;28;20037;-61
2023/03/06 19:24:29;;;;;;;32.25;16.73;;;1.30;99.90;;;;;;20913760;28;20037;-57
2023/03/06 19:34:31;;;;;;;30.38;15.63;;;1.40;99.90;;;;;;20912011;28;20041;-64
2023/03/06 19:44:33;;;;;;;29.33;16.00;;;1.30;99.90;;;;;;20912171;28;20029;-56
2023/03/06 19:54:35;;;;;;;28.00;14.25;;;1.10;99.90;;;;;;20911536;28;20056;-57
2023/03/06 20:04:37;;;;;;;18.83;11.68;;;1.40;99.90;;;;;;20911357;28;20059;-56
2023/03/06 20:14:38;;;;;;;17.30;10.52;;;1.40;99.90;;;;;;20909937;28;20056;-56
2023/03/06 20:24:40;;;;;;;25.80;13.18;;;1.10;99.90;;;;;;20909097;28;20044;-58
2023/03/06 20:34:43;;;;;;;19.23;9.35;;;0.80;99.90;;;;;;20908723;28;20032;-59
2023/03/06 20:44:45;;;;;;;20.10;10.80;;;1.00;99.90;;;;;;20907537;28;20037;-57
2023/03/06 20:54:46;;;;;;;19.73;9.57;;;0.90;99.90;;;;;;20906861;28;20433;-66
2023/03/06 21:04:48;;;;;;;27.75;13.65;;;1.10;99.90;;;;;;20906350;28;20041;-57
2023/03/06 21:14:50;;;;;;;25.00;14.68;;;1.20;99.90;;;;;;20904591;28;20790;-64
2023/03/06 21:24:52;;;;;;;31.30;16.17;;;0.60;99.90;;;;;;20898156;28;20041;-66
2023/03/06 21:34:55;;;;;;;33.75;18.10;;;0.20;99.90;;;;;;20962629;28;20044;-58
2023/03/06 21:44:58;;;;;;;39.80;19.52;;;-0.20;99.90;;;;;;20950897;28;20063;-59
2023/03/06 21:55:01;;;;;;;32.55;15.75;;;-0.40;99.90;;;;;;20882833;28;20547;-59
2023/03/06 22:05:03;;;;;;;35.40;17.42;;;-0.50;99.90;;;;;;20902322;28;20045;-65
2023/03/06 22:15:06;;;;;;;34.78;17.27;;;-0.50;99.90;;;;;;20901598;28;20082;-58
2023/03/06 22:25:08;;;;;;;32.42;17.08;;;-0.50;99.90;;;;;;20901404;28;20029;-56
2023/03/06 22:35:10;;;;;;;25.98;13.18;;;-0.60;99.90;;;;;;20917308;28;20037;-59
2023/03/06 22:45:11;;;;;;;27.00;13.77;;;0.10;99.90;;;;;;20915837;28;20037;-65
2023/03/06 22:55:13;;;;;;;20.52;11.65;;;0.40;99.90;;;;;;20916215;28;20397;-66
2023/03/06 23:05:15;;;;;;;24.70;11.68;;;0.10;99.90;;;;;;20915618;28;20029;-57
2023/03/06 23:15:17;;;;;;;28.40;14.52;;;-0.20;99.90;;;;;;20913321;28;20079;-66
2023/03/06 23:25:37;;;;;;;30.40;16.00;;;-0.30;99.90;;;;;;20912429;28;20109;-66
2023/03/06 23:35:40;;;;;;;38.60;18.77;;;-0.30;99.90;;;;;;20913437;28;20029;-67
2023/03/06 23:45:51;;;;;;;34.00;17.98;;;-0.40;99.90;;;;;;20911741;28;20037;-64
2023/03/06 23:55:53;;;;;;;52.08;26.33;;;-0.60;99.90;;;;;;20911885;28;20021;-56
